createdAt,value
2018-12-07T00:00:22.948Z,35.07
2018-12-07T00:02:50.237Z,32.60
2018-12-07T00:05:17.512Z,31.10
2018-12-07T00:07:44.816Z,30.20
2018-12-07T00:10:12.114Z,31.07
2018-12-07T00:12:39.399Z,31.20
2018-12-07T00:15:06.672Z,31.83
2018-12-07T00:17:33.997Z,27.70
2018-12-07T00:20:01.304Z,31.13
2018-12-07T00:22:28.600Z,30.20
2018-12-07T00:24:55.901Z,29.20
2018-12-07T00:27:23.719Z,27.07
2018-12-07T00:29:51.048Z,29.90
2018-12-07T00:32:18.354Z,26.80
2018-12-07T00:34:45.628Z,30.77
2018-12-07T00:37:12.926Z,29.97
2018-12-07T00:39:40.240Z,29.23
2018-12-07T00:42:07.599Z,31.23
2018-12-07T00:44:34.900Z,27.70
2018-12-07T00:47:02.195Z,34.47
2018-12-07T00:49:29.487Z,29.13
2018-12-07T00:51:56.837Z,26.30
2018-12-07T00:54:24.132Z,32.30
2018-12-07T00:56:51.452Z,30.30
2018-12-07T00:59:18.747Z,26.47
2018-12-07T01:01:46.065Z,28.70
2018-12-07T01:04:13.380Z,27.30
2018-12-07T01:06:40.651Z,29.17
2018-12-07T01:09:08.004Z,24.83
2018-12-07T01:11:35.376Z,27.97
2018-12-07T01:14:02.653Z,25.37
2018-12-07T01:16:29.944Z,27.17
2018-12-07T01:18:57.239Z,25.90
2018-12-07T01:21:24.574Z,28.13
2018-12-07T01:23:51.860Z,23.17
2018-12-07T01:26:19.172Z,24.90
2018-12-07T01:28:47.441Z,27.13
2018-12-07T01:31:16.073Z,25.23
2018-12-07T01:33:43.369Z,21.67
2018-12-07T01:36:10.684Z,23.27
2018-12-07T01:38:38.994Z,22.90
2018-12-07T01:41:06.277Z,21.30
2018-12-07T01:43:33.592Z,21.00
2018-12-07T01:46:00.927Z,19.03
2018-12-07T01:48:28.240Z,18.80
2018-12-07T01:50:55.560Z,19.23
2018-12-07T01:53:22.880Z,21.50
2018-12-07T01:55:50.227Z,17.20
2018-12-07T01:58:17.524Z,22.40
2018-12-07T02:00:44.834Z,20.60
2018-12-07T02:03:12.155Z,23.33
2018-12-07T02:05:39.443Z,16.17
2018-12-07T02:08:07.534Z,18.80
2018-12-07T02:10:34.837Z,19.93
2018-12-07T02:13:02.119Z,18.40
2018-12-07T02:15:31.320Z,20.97
2018-12-07T02:17:58.639Z,19.10
2018-12-07T02:20:25.964Z,19.30
2018-12-07T02:22:53.236Z,19.60
2018-12-07T02:25:20.560Z,19.10
2018-12-07T02:27:53.487Z,20.80
2018-12-07T02:30:20.800Z,17.60
2018-12-07T02:32:48.112Z,18.23
2018-12-07T02:35:15.453Z,19.33
2018-12-07T02:37:42.727Z,18.30
2018-12-07T02:40:10.036Z,22.00
2018-12-07T02:42:37.387Z,21.10
2018-12-07T02:45:04.759Z,17.43
2018-12-07T02:47:32.076Z,17.27
2018-12-07T02:49:59.354Z,18.27
2018-12-07T02:52:26.623Z,16.63
2018-12-07T02:54:53.911Z,17.53
2018-12-07T02:57:21.236Z,18.47
2018-12-07T02:59:48.546Z,20.90
2018-12-07T03:02:15.825Z,17.40
2018-12-07T03:04:43.099Z,18.80
2018-12-07T03:07:10.412Z,19.10
2018-12-07T03:09:37.721Z,22.67
2018-12-07T03:12:04.992Z,20.00
2018-12-07T03:14:32.341Z,22.07
2018-12-07T03:16:59.652Z,27.33
2018-12-07T03:19:26.957Z,24.10
2018-12-07T03:21:54.244Z,22.57
2018-12-07T03:24:21.566Z,23.63
2018-12-07T03:26:48.900Z,20.70
2018-12-07T03:29:16.195Z,26.23
2018-12-07T03:31:43.537Z,28.70
2018-12-07T03:34:10.814Z,21.97
2018-12-07T03:36:38.137Z,28.90
2018-12-07T03:39:05.440Z,25.20
2018-12-07T03:41:32.852Z,27.20
2018-12-07T03:44:00.160Z,26.20
2018-12-07T03:46:27.543Z,27.63
2018-12-07T03:48:54.876Z,29.30
2018-12-07T03:51:22.147Z,29.10
2018-12-07T03:53:49.451Z,29.93
2018-12-07T03:56:16.743Z,31.43
2018-12-07T03:58:44.023Z,31.33
2018-12-07T04:01:11.312Z,32.70
2018-12-07T04:03:38.628Z,32.83
2018-12-07T04:06:05.948Z,29.70
2018-12-07T04:08:33.228Z,32.97
2018-12-07T04:11:00.550Z,33.40
2018-12-07T04:13:27.831Z,28.30
2018-12-07T04:15:55.123Z,29.13
2018-12-07T04:18:22.427Z,29.60
2018-12-07T04:20:49.714Z,35.03
2018-12-07T04:23:17.037Z,31.20
2018-12-07T04:25:44.339Z,31.37
2018-12-07T04:28:11.645Z,29.40
2018-12-07T04:30:38.975Z,31.17
2018-12-07T04:33:06.315Z,32.00
2018-12-07T04:35:33.627Z,29.93
2018-12-07T04:38:00.903Z,34.57
2018-12-07T04:40:28.188Z,34.47
2018-12-07T04:42:55.535Z,30.27
2018-12-07T04:45:22.811Z,32.43
2018-12-07T04:47:50.088Z,31.63
2018-12-07T04:50:17.418Z,27.10
2018-12-07T04:52:44.711Z,29.50
2018-12-07T04:55:12.913Z,32.87
2018-12-07T04:57:40.221Z,27.50
2018-12-07T05:00:08.419Z,28.10
2018-12-07T05:02:35.700Z,25.07
2018-12-07T05:05:03.817Z,25.07
2018-12-07T05:07:31.095Z,30.93
2018-12-07T05:09:58.436Z,33.50
2018-12-07T05:12:25.821Z,35.00
2018-12-07T05:14:53.120Z,30.60
2018-12-07T05:17:20.437Z,37.30
2018-12-07T05:19:47.749Z,35.03
2018-12-07T05:22:15.030Z,36.37
2018-12-07T05:24:42.332Z,35.00
2018-12-07T05:27:09.646Z,38.13
2018-12-07T05:29:36.963Z,32.50
2018-12-07T05:32:04.271Z,36.60
2018-12-07T05:34:31.552Z,35.33
2018-12-07T05:36:58.839Z,34.80
2018-12-07T05:39:26.125Z,34.20
2018-12-07T05:41:53.453Z,32.73
2018-12-07T05:44:20.743Z,30.80
2018-12-07T05:46:48.072Z,29.10
2018-12-07T05:49:15.360Z,31.70
2018-12-07T05:51:42.677Z,33.00
2018-12-07T05:54:10.000Z,27.83
2018-12-07T05:56:37.282Z,26.27
2018-12-07T05:59:04.566Z,26.20
2018-12-07T06:01:32.815Z,26.90
2018-12-07T06:04:00.109Z,30.50
2018-12-07T06:06:27.399Z,27.50
2018-12-07T06:08:54.695Z,25.60
2018-12-07T06:11:22.006Z,27.73
2018-12-07T06:13:49.316Z,26.43
2018-12-07T06:16:16.607Z,29.57
2018-12-07T06:18:43.925Z,24.90
2018-12-07T06:21:11.276Z,26.13
2018-12-07T06:23:38.588Z,33.03
2018-12-07T06:26:05.863Z,27.00
2018-12-07T06:28:33.155Z,26.70
2018-12-07T06:31:00.443Z,25.90
2018-12-07T06:33:27.784Z,28.07
2018-12-07T06:35:55.972Z,26.17
2018-12-07T06:38:23.255Z,28.17
2018-12-07T06:40:50.547Z,27.87
2018-12-07T06:43:17.877Z,27.37
2018-12-07T06:45:45.200Z,28.00
2018-12-07T06:48:12.507Z,26.27
2018-12-07T06:50:39.819Z,30.10
2018-12-07T06:53:07.107Z,29.97
2018-12-07T06:55:34.445Z,28.80
2018-12-07T06:58:01.759Z,28.63
2018-12-07T07:00:29.062Z,29.70
2018-12-07T07:02:56.413Z,27.43
2018-12-07T07:05:23.703Z,26.20
2018-12-07T07:07:51.036Z,27.80
2018-12-07T07:10:18.342Z,28.67
2018-12-07T07:12:45.677Z,27.40
2018-12-07T07:15:13.025Z,28.80
2018-12-07T07:17:40.313Z,29.20
2018-12-07T07:20:07.624Z,27.33
2018-12-07T07:22:34.927Z,29.57
2018-12-07T07:25:02.235Z,27.93
2018-12-07T07:27:29.514Z,26.63
2018-12-07T07:29:56.834Z,27.70
2018-12-07T07:32:25.048Z,23.40
2018-12-07T07:34:52.364Z,24.43
2018-12-07T07:37:19.671Z,20.67
2018-12-07T07:39:46.988Z,23.20
2018-12-07T07:42:14.294Z,22.57
2018-12-07T07:44:41.595Z,22.23
2018-12-07T07:47:08.936Z,22.87
2018-12-07T07:49:37.151Z,23.00
2018-12-07T07:52:04.508Z,20.20
2018-12-07T07:54:31.795Z,19.67
2018-12-07T07:56:59.100Z,16.83
2018-12-07T07:59:26.448Z,18.33
2018-12-07T08:01:53.780Z,19.93
2018-12-07T08:04:21.136Z,23.67
2018-12-07T08:06:48.407Z,18.13
2018-12-07T08:09:15.740Z,17.60
2018-12-07T08:11:43.094Z,16.63
2018-12-07T08:14:10.367Z,15.43
2018-12-07T08:16:37.650Z,17.00
2018-12-07T08:19:04.928Z,16.30
2018-12-07T08:21:32.208Z,14.10
2018-12-07T08:23:59.520Z,18.97
2018-12-07T08:26:26.836Z,14.00
2018-12-07T08:28:54.167Z,13.00
2018-12-07T08:31:21.469Z,13.73
2018-12-07T08:33:48.747Z,14.73
2018-12-07T08:36:16.069Z,15.83
2018-12-07T08:38:43.372Z,13.43
2018-12-07T08:41:10.676Z,12.90
2018-12-07T08:43:37.991Z,10.70
2018-12-07T08:46:05.297Z,11.30
2018-12-07T08:48:32.567Z,14.50
2018-12-07T08:50:59.884Z,11.00
2018-12-07T08:53:27.176Z,9.93
2018-12-07T08:55:54.580Z,14.23
2018-12-07T08:58:21.848Z,13.83
2018-12-07T09:00:49.144Z,9.80
2018-12-07T09:03:16.468Z,10.50
2018-12-07T09:05:43.765Z,7.97
2018-12-07T09:08:15.260Z,10.40
2018-12-07T09:10:40.396Z,9.70
2018-12-07T09:13:07.688Z,10.27
2018-12-07T09:15:34.971Z,7.53
2018-12-07T09:18:02.256Z,9.07
2018-12-07T09:20:29.571Z,8.90
2018-12-07T09:22:56.836Z,7.63
2018-12-07T09:25:24.146Z,14.57
2018-12-07T09:27:52.153Z,8.80
2018-12-07T09:30:19.460Z,7.53
2018-12-07T09:32:46.752Z,7.53
2018-12-07T09:35:14.031Z,6.13
2018-12-07T09:37:41.333Z,6.17
2018-12-07T09:40:08.642Z,7.87
2018-12-07T09:42:35.929Z,6.63
2018-12-07T09:45:03.636Z,11.33
2018-12-07T09:47:30.900Z,6.67
2018-12-07T09:49:58.224Z,5.70
2018-12-07T09:52:25.524Z,6.30
2018-12-07T09:54:52.828Z,6.03
2018-12-07T09:57:20.106Z,6.90
2018-12-07T09:59:47.379Z,6.20
2018-12-07T10:02:15.614Z,6.90
2018-12-07T10:04:42.917Z,4.80
2018-12-07T10:07:10.244Z,6.07
2018-12-07T10:09:37.520Z,4.13
2018-12-07T10:12:04.800Z,9.80
2018-12-07T10:14:32.075Z,3.70
2018-12-07T10:16:59.344Z,6.30
2018-12-07T10:19:26.638Z,3.63
2018-12-07T10:21:53.987Z,5.30
2018-12-07T10:24:21.271Z,4.10
2018-12-07T10:26:48.540Z,6.37
2018-12-07T10:29:15.803Z,5.37
2018-12-07T10:31:43.109Z,4.50
2018-12-07T10:34:10.390Z,5.37
2018-12-07T10:36:37.687Z,4.90
2018-12-07T10:39:05.404Z,5.23
2018-12-07T10:41:32.700Z,9.13
2018-12-07T10:43:59.971Z,8.63
2018-12-07T10:46:28.224Z,4.07
2018-12-07T10:48:55.533Z,3.50
2018-12-07T10:51:22.829Z,8.50
2018-12-07T10:53:50.102Z,3.90
2018-12-07T10:56:17.408Z,6.57
2018-12-07T10:58:44.700Z,2.90
2018-12-07T11:01:17.908Z,4.67
2018-12-07T11:03:51.051Z,3.63
2018-12-07T11:12:40.896Z,3.13
2018-12-07T11:15:14.120Z,4.90
2018-12-07T11:17:47.116Z,4.70
2018-12-07T11:23:34.375Z,3.13
2018-12-07T11:26:07.471Z,4.40
2018-12-07T11:28:40.654Z,5.07
2018-12-07T11:31:14.683Z,5.60
2018-12-07T11:33:43.903Z,3.47
2018-12-07T11:36:11.159Z,3.43
2018-12-07T11:38:38.429Z,6.43
2018-12-07T11:41:05.736Z,6.43
2018-12-07T11:43:33.012Z,3.17
2018-12-07T11:46:00.274Z,2.30
2018-12-07T11:48:27.614Z,2.20
2018-12-07T11:50:54.955Z,2.23
2018-12-07T11:53:22.242Z,3.70
2018-12-07T11:55:49.555Z,3.60
2018-12-07T11:58:16.847Z,2.20
2018-12-07T12:00:44.157Z,2.30
2018-12-07T12:03:11.435Z,2.37
2018-12-07T12:05:38.711Z,2.40
2018-12-07T12:08:06.012Z,2.40
2018-12-07T12:10:34.220Z,2.07
2018-12-07T12:13:01.513Z,2.40
2018-12-07T12:15:28.792Z,2.80
2018-12-07T12:17:56.061Z,4.67
2018-12-07T12:20:23.372Z,3.20
2018-12-07T12:22:50.644Z,5.10
2018-12-07T12:25:17.955Z,3.77
2018-12-07T12:27:45.208Z,3.30
2018-12-07T12:30:12.528Z,4.77
2018-12-07T12:32:39.811Z,3.00
2018-12-07T12:35:07.129Z,4.10
2018-12-07T12:37:34.424Z,3.20
2018-12-07T12:40:01.699Z,3.97
2018-12-07T12:42:28.971Z,4.60
2018-12-07T12:44:56.242Z,3.43
2018-12-07T12:47:23.545Z,3.90
2018-12-07T12:49:50.811Z,4.17
2018-12-07T12:52:18.087Z,3.40
2018-12-07T12:54:45.372Z,3.00
2018-12-07T12:57:12.651Z,2.63
2018-12-07T12:59:39.919Z,3.30
2018-12-07T13:02:07.199Z,2.53
2018-12-07T13:04:34.508Z,3.30
2018-12-07T13:07:01.805Z,3.10
2018-12-07T13:09:29.128Z,3.23
2018-12-07T13:11:56.411Z,3.20
2018-12-07T13:14:23.761Z,3.93
2018-12-07T13:16:51.065Z,2.90
2018-12-07T13:19:18.360Z,3.30
2018-12-07T13:21:45.627Z,3.30
2018-12-07T13:24:13.881Z,3.40
2018-12-07T13:26:41.180Z,3.30
2018-12-07T13:29:08.557Z,3.30
2018-12-07T13:31:35.819Z,3.63
2018-12-07T13:34:03.091Z,4.00
2018-12-07T13:36:30.387Z,3.97
2018-12-07T13:38:58.619Z,5.23
2018-12-07T13:41:27.538Z,4.10
2018-12-07T13:43:55.049Z,4.20
2018-12-07T13:46:22.474Z,5.40
2018-12-07T13:48:49.836Z,6.20
2018-12-07T13:51:17.465Z,6.10
2018-12-07T13:53:44.815Z,6.83
2018-12-07T13:56:16.175Z,8.97
2018-12-07T13:58:41.545Z,5.50
2018-12-07T14:01:09.075Z,7.87
2018-12-07T14:03:36.603Z,5.30
2018-12-07T14:06:03.950Z,6.50
2018-12-07T14:08:31.409Z,7.27
2018-12-07T14:10:58.778Z,9.10
2018-12-07T14:13:26.266Z,7.80
2018-12-07T14:15:53.626Z,8.20
2018-12-07T14:18:21.093Z,9.27
2018-12-07T14:20:48.426Z,6.83
2018-12-07T14:23:15.984Z,7.30
2018-12-07T14:25:43.476Z,12.00
2018-12-07T14:28:10.927Z,11.20
2018-12-07T14:30:38.236Z,7.83
2018-12-07T14:33:05.536Z,7.73
2018-12-07T14:35:33.295Z,7.67
2018-12-07T14:38:01.626Z,8.70
2018-12-07T14:40:29.164Z,7.80
2018-12-07T14:42:56.595Z,6.10
2018-12-07T14:45:24.072Z,7.90
2018-12-07T14:47:51.576Z,9.87
2018-12-07T14:50:19.051Z,9.60
2018-12-07T14:52:46.432Z,10.97
2018-12-07T14:55:13.842Z,10.10
2018-12-07T14:57:41.327Z,8.70
2018-12-07T15:00:08.941Z,14.40
2018-12-07T15:02:36.707Z,11.70
2018-12-07T15:05:04.883Z,11.23
2018-12-07T15:07:32.424Z,14.00
2018-12-07T15:10:00.135Z,14.33
2018-12-07T15:12:27.680Z,14.63
2018-12-07T15:14:55.276Z,12.57
2018-12-07T15:17:22.716Z,15.47
2018-12-07T15:19:50.167Z,12.43
2018-12-07T15:22:17.721Z,18.90
2018-12-07T15:24:45.159Z,14.83
2018-12-07T15:27:12.482Z,18.70
2018-12-07T15:29:39.855Z,18.73
2018-12-07T15:32:08.237Z,15.67
2018-12-07T15:34:35.605Z,13.63
2018-12-07T15:37:03.046Z,14.50
2018-12-07T15:39:30.412Z,17.37
2018-12-07T15:41:58.724Z,13.40
2018-12-07T15:44:26.229Z,14.07
2018-12-07T15:46:53.766Z,16.13
2018-12-07T15:49:21.297Z,22.60
2018-12-07T15:51:48.825Z,17.30
2018-12-07T15:54:16.175Z,18.07
2018-12-07T15:56:43.478Z,15.90
2018-12-07T15:59:11.899Z,18.80
2018-12-07T16:01:39.313Z,16.90
2018-12-07T16:04:06.632Z,16.87
2018-12-07T16:06:33.993Z,15.20
2018-12-07T16:09:01.338Z,12.50
2018-12-07T16:11:28.836Z,11.80
2018-12-07T16:13:56.598Z,12.97
2018-12-07T16:16:24.004Z,18.70
2018-12-07T16:18:51.431Z,15.03
2018-12-07T16:21:18.881Z,14.17
2018-12-07T16:23:46.332Z,16.13
2018-12-07T16:26:13.841Z,12.33
2018-12-07T16:28:41.332Z,14.70
2018-12-07T16:31:08.919Z,13.43
2018-12-07T16:33:36.470Z,15.50
2018-12-07T16:36:03.913Z,14.83
2018-12-07T16:38:31.199Z,15.93
2018-12-07T16:40:58.700Z,13.27
2018-12-07T16:43:26.105Z,15.90
2018-12-07T16:45:53.624Z,16.53
2018-12-07T16:48:21.091Z,17.70
2018-12-07T16:50:48.459Z,15.30
2018-12-07T16:53:15.788Z,15.17
2018-12-07T16:55:43.271Z,15.10
2018-12-07T16:58:10.782Z,15.47
2018-12-07T17:00:38.299Z,12.97
2018-12-07T17:03:05.810Z,12.23
2018-12-07T17:05:34.372Z,10.50
2018-12-07T17:08:02.060Z,12.67
2018-12-07T17:10:29.635Z,13.60
2018-12-07T17:12:57.070Z,14.00
2018-12-07T17:15:24.625Z,10.43
2018-12-07T17:17:52.254Z,11.73
2018-12-07T17:20:19.837Z,11.70
2018-12-07T17:22:47.338Z,12.30
2018-12-07T17:25:14.997Z,12.97
2018-12-07T17:27:42.446Z,11.30
2018-12-07T17:30:10.920Z,12.13
2018-12-07T17:32:38.280Z,11.13
2018-12-07T17:35:05.887Z,8.50
2018-12-07T17:37:33.667Z,14.93
2018-12-07T17:40:01.034Z,9.93
2018-12-07T17:42:29.785Z,10.93
2018-12-07T17:44:57.767Z,9.90
2018-12-07T17:47:25.655Z,12.20
2018-12-07T17:49:53.213Z,14.60
2018-12-07T17:52:20.748Z,14.27
2018-12-07T17:54:48.124Z,26.87
2018-12-07T17:57:15.566Z,16.87
2018-12-07T17:59:44.068Z,19.13
2018-12-07T18:02:11.433Z,16.77
2018-12-07T18:04:38.715Z,17.50
2018-12-07T18:07:06.021Z,17.07
2018-12-07T18:09:33.462Z,12.13
2018-12-07T18:12:01.001Z,16.00
2018-12-07T18:14:28.309Z,16.70
2018-12-07T18:16:55.941Z,16.93
2018-12-07T18:19:23.644Z,15.83
2018-12-07T18:21:51.138Z,13.43
2018-12-07T18:24:18.531Z,18.23
2018-12-07T18:26:45.936Z,17.90
2018-12-07T18:29:13.516Z,16.87
2018-12-07T18:31:40.864Z,15.20
2018-12-07T18:34:08.241Z,15.30
2018-12-07T18:36:35.783Z,13.70
2018-12-07T18:39:05.100Z,15.80
2018-12-07T18:41:32.584Z,17.97
2018-12-07T18:43:59.920Z,15.47
2018-12-07T18:46:27.210Z,17.07
2018-12-07T18:48:54.532Z,16.37
2018-12-07T18:51:21.977Z,16.67
2018-12-07T18:53:49.301Z,16.57
2018-12-07T18:56:16.644Z,18.53
2018-12-07T18:58:44.035Z,16.63
2018-12-07T19:01:11.480Z,15.57
2018-12-07T19:03:39.118Z,16.53
2018-12-07T19:06:06.593Z,17.77
2018-12-07T19:08:34.201Z,15.53
2018-12-07T19:11:01.850Z,16.97
2018-12-07T19:13:29.395Z,13.30
2018-12-07T19:15:57.130Z,14.20
2018-12-07T19:18:24.522Z,14.33
2018-12-07T19:20:52.056Z,17.73
2018-12-07T19:23:19.390Z,18.63
2018-12-07T19:25:46.797Z,17.80
2018-12-07T19:28:14.206Z,15.77
2018-12-07T19:30:42.541Z,19.03
2018-12-07T19:33:09.992Z,13.70
2018-12-07T19:35:37.369Z,19.83
2018-12-07T19:38:04.922Z,13.53
2018-12-07T19:40:32.543Z,18.47
2018-12-07T19:43:00.257Z,14.77
2018-12-07T19:45:27.931Z,12.07
2018-12-07T19:47:55.783Z,13.03
2018-12-07T19:50:23.289Z,16.67
2018-12-07T19:52:50.719Z,16.03
2018-12-07T19:55:18.182Z,12.87
2018-12-07T19:57:45.525Z,14.80
2018-12-07T20:00:14.071Z,16.80
2018-12-07T20:02:41.856Z,14.57
2018-12-07T20:05:09.462Z,12.43
2018-12-07T20:07:37.135Z,12.37
2018-12-07T20:10:05.192Z,13.77
2018-12-07T20:12:32.474Z,13.17
2018-12-07T20:15:00.143Z,10.63
2018-12-07T20:17:27.858Z,16.73
2018-12-07T20:19:55.285Z,16.90
2018-12-07T20:22:22.654Z,14.53
2018-12-07T20:24:50.006Z,12.77
2018-12-07T20:27:17.389Z,11.70
2018-12-07T20:29:44.767Z,10.63
2018-12-07T20:32:12.205Z,9.87
2018-12-07T20:34:39.707Z,13.67
2018-12-07T20:37:07.197Z,8.90
2018-12-07T20:39:34.756Z,9.30
2018-12-07T20:42:02.192Z,8.93
2018-12-07T20:44:30.378Z,9.80
2018-12-07T20:46:57.710Z,11.00
2018-12-07T20:49:25.076Z,6.80
2018-12-07T20:51:52.617Z,9.30
2018-12-07T20:54:20.011Z,9.80
2018-12-07T20:56:47.530Z,7.70
2018-12-07T20:59:14.966Z,7.90
2018-12-07T21:01:50.886Z,9.43
2018-12-07T21:04:33.388Z,6.67
2018-12-07T21:13:33.244Z,8.23
2018-12-07T21:16:10.036Z,8.57
2018-12-07T21:18:37.453Z,5.77
2018-12-07T21:21:04.789Z,7.13
2018-12-07T21:23:32.297Z,7.13
2018-12-07T21:25:59.917Z,9.57
2018-12-07T21:28:27.351Z,8.50
2018-12-07T21:30:54.965Z,17.00
2018-12-07T21:33:22.530Z,17.20
2018-12-07T21:35:55.718Z,12.33
2018-12-07T21:38:23.024Z,9.20
2018-12-07T21:40:50.316Z,8.20
2018-12-07T21:43:17.596Z,12.40
2018-12-07T21:45:45.118Z,8.07
2018-12-07T21:48:17.678Z,6.70
2018-12-07T21:50:45.781Z,9.30
2018-12-07T21:53:13.429Z,7.57
2018-12-07T21:55:40.902Z,9.17
2018-12-07T21:58:08.579Z,8.30
2018-12-07T22:00:35.985Z,5.00
2018-12-07T22:03:03.461Z,6.50
2018-12-07T22:05:31.030Z,7.43
2018-12-07T22:07:58.702Z,5.70
2018-12-07T22:10:26.278Z,6.63
2018-12-07T22:12:54.779Z,9.40
2018-12-07T22:15:22.455Z,5.87
2018-12-07T22:17:49.948Z,5.00
2018-12-07T22:20:17.482Z,5.30
2018-12-07T22:22:45.300Z,7.30
2018-12-07T22:25:12.818Z,5.27
2018-12-07T22:27:40.342Z,6.20
2018-12-07T22:30:07.934Z,7.43
2018-12-07T22:32:35.270Z,7.43
2018-12-07T22:35:02.649Z,6.10
2018-12-07T22:37:29.957Z,7.20
2018-12-07T22:39:57.368Z,8.37
2018-12-07T22:42:24.797Z,5.53
2018-12-07T22:44:52.320Z,6.17
2018-12-07T22:47:19.729Z,5.70
2018-12-07T22:49:47.116Z,4.97
2018-12-07T22:52:14.388Z,4.00
2018-12-07T22:54:41.654Z,2.70
2018-12-07T22:57:08.927Z,7.37
2018-12-07T22:59:36.219Z,3.00
2018-12-07T23:02:03.703Z,2.67
2018-12-07T23:04:31.953Z,5.50
2018-12-07T23:06:59.226Z,6.37
2018-12-07T23:09:26.532Z,3.67
2018-12-07T23:11:53.848Z,5.13
2018-12-07T23:14:21.152Z,3.30
2018-12-07T23:16:48.430Z,1.50
2018-12-07T23:19:16.199Z,2.20
2018-12-07T23:21:43.524Z,2.03
2018-12-07T23:24:10.813Z,1.60
2018-12-07T23:26:38.084Z,1.60
2018-12-07T23:29:07.287Z,1.30
2018-12-07T23:31:34.546Z,3.93
2018-12-07T23:34:02.780Z,1.73
2018-12-07T23:36:30.039Z,1.40
2018-12-07T23:43:50.776Z,1.33
2018-12-07T23:46:18.051Z,1.50
2018-12-07T23:48:45.360Z,1.60
2018-12-07T23:51:12.705Z,1.67
2018-12-07T23:53:39.996Z,1.40
2018-12-07T23:56:07.270Z,1.43
2018-12-07T23:58:35.536Z,1.40
